ΕΜΥ, Εθνική Μετεωρολογική Υπηρεσία - Δελτία Καιρού, Προγνώσεις

ΑΕΡΟΝΑΥΤΙΛΙΑ

GREEK AIRPORTS CODES

TAF LGTS 091100Z 0912/1012 33012KT 9999 SCT030 PROB30 TEMPO 0912/0918 7000 SHRA FEW020TCU SCT030 BECMG 0918/0920 CAVOK=

EUROPEAN AIRPORTS CODES